Time;durP1;ratioP1;P1;durP2;ratioP2;P2;SDS_P1;SDS_P2;PMS_P1;PMS_P2;Temp;Humidity;BMP_temperature;BMP_pressure;BME280_temperature;BME280_humidity;BME280_pressure;Samples;Min_cycle;Max_cycle;Signal;HPM_P1;HPM_P2
2022/11/14 00:00:26;;;;;;;8.47;5.60;;;4.00;99.90;;;;;;5047056;28;20468;-66
2022/11/14 00:02:52;;;;;;;10.77;5.87;;;3.90;99.90;;;;;;5033680;28;20508;-67
2022/11/14 00:05:18;;;;;;;10.07;5.70;;;3.90;99.90;;;;;;5034096;28;20488;-67
2022/11/14 00:07:44;;;;;;;9.53;5.63;;;3.90;99.90;;;;;;5034348;28;20429;-66
2022/11/14 00:10:11;;;;;;;11.53;5.60;;;3.90;99.90;;;;;;5031091;28;20471;-66
2022/11/14 00:12:36;;;;;;;12.80;6.40;;;3.90;99.90;;;;;;5036056;28;20440;-66
2022/11/14 00:15:02;;;;;;;12.20;5.60;;;3.80;99.90;;;;;;5068342;22;20491;-66
2022/11/14 00:17:28;;;;;;;10.30;5.30;;;3.80;99.90;;;;;;5054116;28;20650;-66
2022/11/14 00:19:54;;;;;;;19.50;5.70;;;3.80;99.90;;;;;;5053539;28;20598;-67
2022/11/14 00:22:19;;;;;;;10.60;5.70;;;3.70;99.90;;;;;;5052723;28;20201;-66
2022/11/14 00:24:45;;;;;;;9.30;5.40;;;3.70;99.90;;;;;;5053728;28;20177;-66
2022/11/14 00:27:11;;;;;;;8.00;4.43;;;3.70;99.90;;;;;;5053438;28;20189;-66
2022/11/14 00:29:37;;;;;;;12.33;6.07;;;3.70;99.90;;;;;;5053107;28;20622;-66
2022/11/14 00:32:03;;;;;;;13.30;6.10;;;3.80;99.90;;;;;;5052787;28;20908;-67
2022/11/14 00:34:28;;;;;;;14.23;6.27;;;3.70;99.90;;;;;;5052261;28;20506;-67
2022/11/14 00:36:54;;;;;;;16.20;6.53;;;3.60;99.90;;;;;;5053719;28;20192;-67
2022/11/14 00:39:19;;;;;;;10.80;6.33;;;3.60;99.90;;;;;;5053382;28;20185;-66
2022/11/14 00:41:45;;;;;;;9.13;4.80;;;3.60;99.90;;;;;;5052567;28;20225;-66
2022/11/14 00:44:11;;;;;;;11.17;5.43;;;3.70;99.90;;;;;;5052766;28;20231;-66
2022/11/14 00:46:37;;;;;;;8.37;4.97;;;3.70;99.90;;;;;;5047950;28;20677;-66
2022/11/14 00:49:03;;;;;;;10.13;4.87;;;3.70;99.90;;;;;;5051686;28;20773;-66
2022/11/14 00:51:28;;;;;;;8.57;5.40;;;3.70;99.90;;;;;;5052956;28;20482;-66
2022/11/14 00:53:54;;;;;;;10.30;5.50;;;3.70;99.90;;;;;;5053268;28;20185;-66
2022/11/14 00:56:20;;;;;;;7.77;4.83;;;3.70;99.90;;;;;;5053413;28;20190;-66
2022/11/14 00:58:45;;;;;;;11.63;6.00;;;3.70;99.90;;;;;;5052390;28;20205;-66
2022/11/14 01:01:11;;;;;;;8.90;5.00;;;3.70;99.90;;;;;;5053071;28;20214;-66
2022/11/14 01:03:36;;;;;;;11.33;6.27;;;3.70;99.90;;;;;;5052601;28;20569;-66
2022/11/14 01:06:05;;;;;;;11.13;5.90;;;3.70;99.90;;;;;;5053303;28;20260;-67
2022/11/14 01:08:31;;;;;;;9.90;4.73;;;3.70;99.90;;;;;;5052933;28;20216;-66
2022/11/14 01:10:57;;;;;;;7.60;4.97;;;3.70;99.90;;;;;;5053113;28;20424;-66
2022/11/14 01:13:23;;;;;;;13.57;7.10;;;3.70;99.90;;;;;;5050897;28;20451;-66
2022/11/14 01:15:49;;;;;;;21.37;6.53;;;3.60;99.90;;;;;;5052933;28;20857;-66
2022/11/14 01:18:18;;;;;;;11.07;5.77;;;3.60;99.90;;;;;;5052710;28;20182;-66
2022/11/14 01:20:46;;;;;;;10.87;5.43;;;3.60;99.90;;;;;;5052677;28;20480;-66
2022/11/14 01:23:14;;;;;;;9.70;4.80;;;3.60;99.90;;;;;;5052639;28;20447;-66
2022/11/14 01:25:40;;;;;;;12.43;5.90;;;3.70;99.90;;;;;;5053404;28;20470;-66
2022/11/14 01:28:08;;;;;;;11.97;6.57;;;3.60;99.90;;;;;;5052816;28;20463;-66
2022/11/14 01:30:34;;;;;;;12.37;6.20;;;3.60;99.90;;;;;;5054213;28;20423;-66
2022/11/14 01:33:00;;;;;;;11.17;6.03;;;3.70;99.90;;;;;;5053679;28;20431;-66
2022/11/14 01:35:26;;;;;;;10.37;4.73;;;3.70;99.90;;;;;;5055489;28;20425;-66
2022/11/14 01:37:51;;;;;;;13.73;6.60;;;3.70;99.90;;;;;;5048865;28;20928;-66
2022/11/14 01:40:17;;;;;;;8.37;5.30;;;3.70;99.90;;;;;;5058172;28;20543;-66
2022/11/14 01:43:26;;;;;;;9.83;5.90;;;3.70;99.90;;;;;;5056955;28;20189;-66
2022/11/14 01:45:53;;;;;;;10.90;5.90;;;3.60;99.90;;;;;;5050647;28;20201;-66
2022/11/14 01:48:37;;;;;;;10.10;6.30;;;3.70;99.90;;;;;;5054332;28;20884;-66
2022/11/14 01:51:32;;;;;;;11.27;5.83;;;3.70;99.90;;;;;;5052847;28;20434;-66
2022/11/14 01:54:02;;;;;;;11.40;6.30;;;3.70;99.90;;;;;;5052350;28;20796;-66
2022/11/14 01:56:36;;;;;;;8.97;5.60;;;3.70;99.90;;;;;;5041467;28;20792;-67
2022/11/14 01:59:06;;;;;;;10.97;6.03;;;3.60;99.90;;;;;;5037883;28;20423;-66
2022/11/14 02:01:34;;;;;;;10.40;5.10;;;3.60;99.90;;;;;;5051131;28;20468;-66
2022/11/14 02:04:02;;;;;;;10.77;6.23;;;3.60;99.90;;;;;;5051736;28;20446;-66
2022/11/14 02:06:29;;;;;;;10.07;5.40;;;3.60;99.90;;;;;;5051888;28;20622;-66
2022/11/14 02:08:56;;;;;;;11.40;5.73;;;3.60;99.90;;;;;;5051688;28;20956;-66
2022/11/14 02:11:22;;;;;;;16.30;6.20;;;3.60;99.90;;;;;;5047915;28;20444;-66
2022/11/14 02:13:48;;;;;;;7.80;5.27;;;3.60;99.90;;;;;;5049326;28;20455;-66
2022/11/14 02:16:14;;;;;;;8.57;4.87;;;3.60;99.90;;;;;;5051699;28;20464;-67
2022/11/14 02:18:40;;;;;;;9.73;5.07;;;3.60;99.90;;;;;;5050929;28;20177;-66
2022/11/14 02:21:05;;;;;;;8.70;5.17;;;3.60;99.90;;;;;;5051449;28;20509;-66
2022/11/14 02:23:32;;;;;;;12.90;5.73;;;3.60;99.90;;;;;;5050502;28;20189;-67
2022/11/14 02:25:58;;;;;;;7.27;4.77;;;3.60;99.90;;;;;;5044531;28;20190;-66
2022/11/14 02:28:24;;;;;;;10.47;5.10;;;3.60;99.90;;;;;;5050948;28;20511;-66
2022/11/14 02:30:49;;;;;;;9.27;5.40;;;3.60;99.90;;;;;;5051651;28;20504;-66
2022/11/14 02:33:16;;;;;;;11.00;5.53;;;3.50;99.90;;;;;;5051067;28;20450;-67
2022/11/14 02:35:41;;;;;;;10.03;5.77;;;3.40;99.90;;;;;;5050501;28;20186;-66
2022/11/14 02:38:07;;;;;;;10.03;4.90;;;3.50;99.90;;;;;;5051367;28;20428;-66
2022/11/14 02:40:33;;;;;;;9.00;4.73;;;3.40;99.90;;;;;;5051514;28;20201;-66
2022/11/14 02:42:59;;;;;;;8.13;5.30;;;3.40;99.90;;;;;;5050724;28;20227;-66
2022/11/14 02:45:25;;;;;;;9.30;5.67;;;3.30;99.90;;;;;;5051074;28;20192;-66
2022/11/14 02:47:50;;;;;;;10.90;5.03;;;3.30;99.90;;;;;;5051243;28;20189;-66
2022/11/14 02:50:16;;;;;;;8.63;4.40;;;3.20;99.90;;;;;;5051447;28;20273;-67
2022/11/14 02:52:42;;;;;;;14.57;5.10;;;3.20;99.90;;;;;;5050505;28;20190;-67
2022/11/14 02:55:08;;;;;;;13.07;6.50;;;3.30;99.90;;;;;;5051191;28;20455;-66
2022/11/14 02:57:34;;;;;;;11.00;5.23;;;3.20;99.90;;;;;;5051065;28;20256;-66
2022/11/14 02:59:59;;;;;;;10.73;5.30;;;3.30;99.90;;;;;;5050541;28;20964;-66
2022/11/14 03:02:25;;;;;;;10.80;5.40;;;3.20;99.90;;;;;;5050806;28;20189;-66
2022/11/14 03:04:50;;;;;;;7.57;4.60;;;3.20;99.90;;;;;;5050916;28;20265;-66
2022/11/14 03:07:16;;;;;;;10.80;4.70;;;3.20;99.90;;;;;;5045492;28;20194;-66
2022/11/14 03:09:41;;;;;;;9.53;4.43;;;3.20;99.90;;;;;;5050976;28;20293;-66
2022/11/14 03:12:07;;;;;;;16.90;5.67;;;3.20;99.90;;;;;;5050493;28;20181;-66
2022/11/14 03:14:33;;;;;;;11.77;5.27;;;3.20;99.90;;;;;;5050428;28;20635;-66
2022/11/14 03:16:58;;;;;;;11.70;5.23;;;3.20;99.90;;;;;;5042991;28;20186;-66
2022/11/14 03:19:24;;;;;;;7.70;4.67;;;3.30;99.90;;;;;;5050782;28;20178;-66
2022/11/14 03:21:49;;;;;;;10.20;4.83;;;3.30;99.90;;;;;;5050677;28;20206;-66
2022/11/14 03:24:15;;;;;;;16.50;5.77;;;3.30;99.90;;;;;;5050833;28;20725;-66
2022/11/14 03:26:41;;;;;;;9.53;4.90;;;3.30;99.90;;;;;;5051190;28;20182;-66
2022/11/14 03:29:06;;;;;;;10.17;4.87;;;3.30;99.90;;;;;;5050361;28;20623;-66
2022/11/14 03:31:32;;;;;;;9.13;4.97;;;3.40;99.90;;;;;;5052089;28;20630;-66
2022/11/14 03:33:57;;;;;;;9.67;4.93;;;3.30;99.90;;;;;;5052999;28;20189;-66
2022/11/14 03:36:23;;;;;;;13.10;5.30;;;3.40;99.90;;;;;;5054616;28;20662;-66
2022/11/14 03:38:48;;;;;;;9.27;5.13;;;3.40;99.90;;;;;;5054499;28;20186;-66
2022/11/14 03:41:14;;;;;;;16.33;5.60;;;3.40;99.90;;;;;;5054597;28;20215;-67
2022/11/14 03:43:40;;;;;;;8.37;4.37;;;3.40;99.90;;;;;;5053312;28;20488;-66
2022/11/14 03:46:05;;;;;;;8.80;5.43;;;3.30;99.90;;;;;;5054464;28;20223;-66
2022/11/14 03:48:31;;;;;;;9.33;5.23;;;3.40;99.90;;;;;;5054209;28;20189;-66
2022/11/14 03:50:57;;;;;;;10.50;5.50;;;3.30;99.90;;;;;;5054284;28;20630;-66
2022/11/14 03:53:23;;;;;;;7.03;4.50;;;3.20;99.90;;;;;;5053617;28;20240;-66
2022/11/14 03:55:50;;;;;;;9.03;5.33;;;3.20;99.90;;;;;;5054179;28;20420;-66
2022/11/14 03:58:16;;;;;;;13.00;6.17;;;3.20;99.90;;;;;;5053428;28;20186;-67
2022/11/14 04:00:41;;;;;;;7.90;4.63;;;3.20;99.90;;;;;;5054283;28;20533;-66
2022/11/14 04:03:07;;;;;;;6.60;4.30;;;3.20;99.90;;;;;;5053468;28;20945;-66
2022/11/14 04:05:32;;;;;;;10.43;4.83;;;3.10;99.90;;;;;;5053989;28;20269;-66
2022/11/14 04:07:58;;;;;;;8.57;5.33;;;3.10;99.90;;;;;;5053708;28;20216;-66
2022/11/14 04:10:24;;;;;;;10.07;5.53;;;3.00;99.90;;;;;;5054285;28;20574;-66
2022/11/14 04:12:51;;;;;;;16.00;6.40;;;3.00;99.90;;;;;;5047317;28;20186;-66
2022/11/14 04:15:18;;;;;;;9.00;5.83;;;3.00;99.90;;;;;;5052530;28;20197;-67
2022/11/14 04:17:45;;;;;;;19.33;6.53;;;3.00;99.90;;;;;;5053240;28;20416;-66
2022/11/14 04:20:12;;;;;;;9.87;4.90;;;3.00;99.90;;;;;;5053401;28;20460;-66
2022/11/14 04:22:38;;;;;;;9.60;5.70;;;2.90;99.90;;;;;;5052866;28;20428;-66
2022/11/14 04:25:04;;;;;;;9.33;5.10;;;2.90;99.90;;;;;;5053396;28;20452;-66
2022/11/14 04:27:30;;;;;;;8.20;4.03;;;2.80;99.90;;;;;;5053557;28;20457;-66
2022/11/14 04:29:55;;;;;;;7.57;4.30;;;2.80;99.90;;;;;;5053174;28;20424;-67
2022/11/14 04:32:21;;;;;;;10.47;5.23;;;2.90;99.90;;;;;;5053134;28;20231;-66
2022/11/14 04:34:46;;;;;;;7.57;4.20;;;2.90;99.90;;;;;;5052499;28;20212;-66
2022/11/14 04:37:12;;;;;;;7.00;4.17;;;2.90;99.90;;;;;;5053419;28;20264;-66
2022/11/14 04:39:38;;;;;;;11.40;5.07;;;2.90;99.90;;;;;;5053358;28;20978;-66
2022/11/14 04:42:03;;;;;;;7.00;3.73;;;2.80;99.90;;;;;;5052416;28;20761;-67
2022/11/14 04:44:29;;;;;;;7.70;4.10;;;2.90;99.90;;;;;;5052635;28;20632;-66
2022/11/14 04:46:54;;;;;;;7.13;4.20;;;2.90;99.90;;;;;;5053212;28;20548;-66
2022/11/14 04:49:20;;;;;;;10.07;6.00;;;2.90;99.90;;;;;;5053441;28;20173;-66
2022/11/14 04:51:46;;;;;;;9.23;5.20;;;2.90;99.90;;;;;;5052769;28;20197;-66
2022/11/14 04:54:11;;;;;;;9.20;4.97;;;2.80;99.90;;;;;;5053561;28;20189;-66
2022/11/14 04:56:37;;;;;;;10.17;4.87;;;2.80;99.90;;;;;;5053111;28;20570;-67
2022/11/14 04:59:02;;;;;;;6.43;3.87;;;2.80;99.90;;;;;;5042420;28;20200;-66
2022/11/14 05:01:28;;;;;;;8.20;4.40;;;2.80;99.90;;;;;;5052720;28;20206;-66
2022/11/14 05:03:54;;;;;;;8.50;4.50;;;2.80;99.90;;;;;;5052759;28;20204;-66
2022/11/14 05:06:20;;;;;;;11.40;5.70;;;2.80;99.90;;;;;;5034714;28;20197;-66
2022/11/14 05:08:47;;;;;;;9.63;4.03;;;2.70;99.90;;;;;;5052670;28;20425;-66
2022/11/14 05:11:17;;;;;;;8.50;4.67;;;2.60;99.90;;;;;;5052248;28;20209;-66
2022/11/14 05:13:43;;;;;;;19.50;8.70;;;2.60;99.90;;;;;;5051168;28;20444;-66
2022/11/14 05:16:09;;;;;;;9.83;5.33;;;2.60;99.90;;;;;;5052500;28;20416;-66
2022/11/14 05:18:35;;;;;;;10.60;5.40;;;2.50;99.90;;;;;;5052403;28;20182;-66
2022/11/14 05:21:01;;;;;;;10.93;5.23;;;2.50;99.90;;;;;;5052160;28;20464;-66
2022/11/14 05:23:27;;;;;;;6.97;4.50;;;2.50;99.90;;;;;;5051921;28;20420;-66
2022/11/14 05:25:59;;;;;;;10.00;5.13;;;2.70;99.90;;;;;;5052280;28;20177;-66
2022/11/14 05:28:25;;;;;;;8.77;4.70;;;2.80;99.90;;;;;;5051783;28;20232;-66
2022/11/14 05:30:50;;;;;;;7.60;4.17;;;2.80;99.90;;;;;;5052159;28;20424;-67
2022/11/14 05:33:16;;;;;;;13.23;5.30;;;2.80;99.90;;;;;;5051759;28;20192;-66
2022/11/14 05:35:41;;;;;;;5.97;4.20;;;2.80;99.90;;;;;;5051197;28;20177;-66
2022/11/14 05:38:07;;;;;;;13.33;4.53;;;2.90;99.90;;;;;;5052173;28;20208;-66
2022/11/14 05:40:33;;;;;;;9.60;4.13;;;2.90;99.90;;;;;;5052241;28;20237;-66
2022/11/14 05:42:58;;;;;;;8.80;4.00;;;2.90;99.90;;;;;;5051631;28;20174;-66
2022/11/14 05:45:25;;;;;;;12.40;4.80;;;2.90;99.90;;;;;;5051590;28;20300;-66
2022/11/14 05:47:53;;;;;;;10.30;5.03;;;2.90;99.90;;;;;;5051872;28;20823;-66
2022/11/14 05:50:19;;;;;;;9.53;4.63;;;2.80;99.90;;;;;;5051838;28;20193;-66
2022/11/14 05:52:44;;;;;;;7.90;4.70;;;2.90;99.90;;;;;;5033217;28;20443;-66
2022/11/14 05:55:10;;;;;;;13.30;5.67;;;3.00;99.90;;;;;;5051068;28;20189;-66
2022/11/14 05:57:36;;;;;;;9.90;5.13;;;2.90;99.90;;;;;;5051639;28;20868;-66
2022/11/14 06:00:03;;;;;;;9.63;4.40;;;3.00;99.90;;;;;;5051380;28;20205;-66
2022/11/14 06:02:29;;;;;;;10.30;4.60;;;3.00;99.90;;;;;;5051379;28;20192;-66
2022/11/14 06:04:54;;;;;;;5.90;4.03;;;3.00;99.90;;;;;;5051582;28;20420;-66
2022/11/14 06:07:20;;;;;;;8.90;4.47;;;3.10;99.90;;;;;;5051437;28;20216;-66
2022/11/14 06:09:45;;;;;;;10.10;5.20;;;3.10;99.90;;;;;;5051604;28;20186;-66
2022/11/14 06:12:11;;;;;;;8.63;4.83;;;3.20;99.90;;;;;;5051301;28;20542;-67
2022/11/14 06:14:37;;;;;;;7.60;4.93;;;3.20;99.90;;;;;;5045321;28;20280;-66
2022/11/14 06:17:02;;;;;;;12.70;4.80;;;3.30;99.90;;;;;;5051546;28;20213;-66
2022/11/14 06:19:28;;;;;;;8.80;5.57;;;3.30;99.90;;;;;;5051354;28;20185;-66
2022/11/14 06:21:53;;;;;;;7.57;4.53;;;3.30;99.90;;;;;;5051044;28;20662;-66
2022/11/14 06:24:19;;;;;;;9.67;6.03;;;3.40;99.90;;;;;;5050432;28;20186;-66
2022/11/14 06:26:44;;;;;;;9.20;5.53;;;3.50;99.90;;;;;;5052004;28;20228;-66
2022/11/14 06:29:10;;;;;;;6.40;3.70;;;3.50;99.90;;;;;;5050962;28;20260;-66
2022/11/14 06:31:36;;;;;;;11.63;4.80;;;3.60;99.90;;;;;;5051351;28;20631;-66
2022/11/14 06:34:04;;;;;;;10.87;5.00;;;3.60;99.90;;;;;;5049759;28;20200;-66
2022/11/14 06:36:29;;;;;;;10.13;4.67;;;3.70;99.90;;;;;;5051263;28;20228;-66
2022/11/14 06:38:55;;;;;;;8.37;5.17;;;3.70;99.90;;;;;;5050048;28;20432;-66
2022/11/14 06:41:21;;;;;;;15.20;5.40;;;3.80;99.90;;;;;;5051035;28;20224;-66
2022/11/14 06:43:54;;;;;;;10.80;5.40;;;3.80;99.90;;;;;;5049738;28;20190;-66
2022/11/14 06:46:21;;;;;;;16.47;6.83;;;3.90;99.90;;;;;;5050347;28;20433;-66
2022/11/14 06:48:48;;;;;;;13.10;7.27;;;4.00;99.90;;;;;;5050686;28;20420;-66
2022/11/14 06:51:15;;;;;;;11.27;5.10;;;4.10;99.90;;;;;;5050367;28;20919;-66
2022/11/14 06:53:41;;;;;;;13.13;5.63;;;4.10;99.90;;;;;;5039361;28;20459;-66
2022/11/14 06:56:08;;;;;;;11.03;4.37;;;4.10;99.90;;;;;;5044897;28;20532;-67
2022/11/14 06:58:37;;;;;;;11.27;4.80;;;4.30;99.90;;;;;;5047841;28;20431;-66
2022/11/14 07:01:24;;;;;;;11.30;5.20;;;4.40;99.90;;;;;;5047436;28;20463;-66
2022/11/14 07:03:50;;;;;;;11.63;5.73;;;4.40;99.90;;;;;;5048628;28;20931;-66
2022/11/14 07:06:24;;;;;;;7.63;5.20;;;4.40;99.90;;;;;;5052493;28;20420;-66
2022/11/14 07:08:50;;;;;;;11.60;5.30;;;4.40;99.90;;;;;;5040880;28;20231;-66
2022/11/14 07:11:22;;;;;;;11.20;5.40;;;4.40;99.90;;;;;;5050835;28;20431;-66
2022/11/14 07:13:52;;;;;;;10.30;5.10;;;4.40;99.90;;;;;;5044027;28;20559;-64
2022/11/14 07:16:18;;;;;;;8.00;4.27;;;4.40;99.90;;;;;;5046587;28;20959;-64
2022/11/14 07:18:43;;;;;;;8.90;4.60;;;4.30;99.90;;;;;;5053283;28;20435;-64
2022/11/14 07:21:12;;;;;;;9.10;4.30;;;4.40;99.90;;;;;;5053572;28;20478;-64
2022/11/14 07:23:38;;;;;;;11.40;6.20;;;4.40;99.90;;;;;;5048453;28;20186;-65
2022/11/14 07:26:06;;;;;;;10.60;5.57;;;4.40;99.90;;;;;;5053227;28;21119;-65
2022/11/14 07:28:33;;;;;;;9.17;3.50;;;4.40;99.90;;;;;;5052804;28;20439;-65
2022/11/14 07:31:01;;;;;;;9.70;5.30;;;4.50;99.90;;;;;;5051981;28;20462;-65
2022/11/14 07:33:26;;;;;;;8.40;4.90;;;4.50;99.90;;;;;;5046760;28;20434;-65
2022/11/14 07:35:52;;;;;;;11.50;5.20;;;4.60;99.90;;;;;;5052557;28;20424;-65
2022/11/14 07:38:18;;;;;;;10.70;5.47;;;4.60;99.90;;;;;;5053614;28;20189;-65
2022/11/14 07:40:52;;;;;;;8.40;4.83;;;4.70;99.90;;;;;;5052555;28;20300;-65
2022/11/14 07:43:17;;;;;;;8.40;4.67;;;4.70;99.90;;;;;;5052690;28;20181;-65
2022/11/14 07:45:43;;;;;;;8.17;4.40;;;4.80;99.90;;;;;;5053921;28;20423;-65
2022/11/14 07:48:09;;;;;;;7.80;4.80;;;4.90;99.90;;;;;;5053709;28;20685;-65
2022/11/14 07:50:34;;;;;;;7.67;4.87;;;5.00;99.90;;;;;;5053374;28;20178;-65
2022/11/14 07:53:00;;;;;;;11.50;5.27;;;5.10;99.90;;;;;;5053089;28;20634;-65
2022/11/14 07:55:25;;;;;;;7.07;4.33;;;5.20;99.90;;;;;;5053222;28;20217;-65
2022/11/14 07:57:53;;;;;;;8.90;4.30;;;5.30;99.90;;;;;;5052199;28;20259;-65
2022/11/14 08:00:19;;;;;;;11.87;4.20;;;5.40;99.90;;;;;;5053080;28;20205;-65
2022/11/14 08:02:45;;;;;;;12.87;4.53;;;5.50;99.90;;;;;;5052787;28;20431;-65
2022/11/14 08:05:11;;;;;;;13.00;5.20;;;5.50;99.90;;;;;;5063667;28;20430;-67
2022/11/14 08:07:36;;;;;;;10.50;5.13;;;5.60;99.90;;;;;;5072817;28;20444;-64
2022/11/14 08:10:02;;;;;;;8.00;3.13;;;5.60;99.90;;;;;;5042299;28;20255;-64
2022/11/14 08:12:28;;;;;;;4.77;2.20;;;5.70;99.90;;;;;;5054664;28;20190;-66
2022/11/14 08:14:54;;;;;;;6.60;3.13;;;5.80;99.90;;;;;;5053743;28;20444;-66
2022/11/14 08:17:20;;;;;;;4.33;2.13;;;5.90;99.90;;;;;;5045994;28;20198;-66
2022/11/14 08:19:46;;;;;;;5.63;2.57;;;6.00;99.90;;;;;;5052332;28;20185;-66
2022/11/14 08:22:11;;;;;;;2.70;1.83;;;6.10;99.90;;;;;;5051636;28;21051;-66
2022/11/14 08:24:37;;;;;;;2.80;1.97;;;6.20;99.90;;;;;;5052118;28;20324;-66
2022/11/14 08:27:03;;;;;;;2.20;1.40;;;6.30;99.90;;;;;;5053030;28;20634;-67
2022/11/14 08:29:28;;;;;;;7.03;1.50;;;6.40;99.90;;;;;;5052308;28;20668;-67
2022/11/14 08:31:54;;;;;;;3.90;1.93;;;6.50;99.90;;;;;;5046503;28;20182;-66
2022/11/14 08:34:21;;;;;;;1.87;0.90;;;6.60;99.90;;;;;;5046236;28;20193;-67
2022/11/14 08:36:47;;;;;;;2.47;1.27;;;6.70;99.90;;;;;;5049546;28;20213;-67
2022/11/14 08:39:12;;;;;;;2.90;1.40;;;6.90;99.90;;;;;;5050076;28;20424;-68
2022/11/14 08:41:38;;;;;;;2.13;1.33;;;7.00;99.90;;;;;;5048547;28;20209;-69
2022/11/14 08:44:03;;;;;;;3.90;1.50;;;7.00;99.90;;;;;;5051727;28;20185;-68
2022/11/14 08:46:29;;;;;;;6.30;1.37;;;7.10;99.90;;;;;;5041458;28;20182;-68
2022/11/14 08:48:54;;;;;;;1.60;0.80;;;7.20;99.90;;;;;;5049856;28;20185;-68
2022/11/14 08:51:20;;;;;;;2.53;1.47;;;7.20;99.90;;;;;;5045553;28;20228;-68
2022/11/14 08:53:46;;;;;;;1.40;0.70;;;7.30;99.90;;;;;;5051921;28;20182;-68
2022/11/14 08:56:11;;;;;;;1.40;0.90;;;7.30;99.90;;;;;;5052414;28;20240;-68
2022/11/14 08:58:37;;;;;;;1.50;0.77;;;7.30;99.90;;;;;;5051462;28;20190;-68
2022/11/14 09:01:05;;;;;;;3.13;1.53;;;7.30;99.90;;;;;;5052310;28;20209;-68
2022/11/14 09:03:31;;;;;;;1.50;0.83;;;7.30;99.90;;;;;;5051679;28;20527;-68
2022/11/14 09:05:57;;;;;;;1.73;0.97;;;7.30;99.90;;;;;;5052122;28;20542;-68
2022/11/14 09:08:23;;;;;;;2.07;1.10;;;7.40;99.90;;;;;;5052168;28;20404;-66
2022/11/14 09:10:48;;;;;;;7.77;1.30;;;7.40;99.90;;;;;;5052648;28;20204;-66
2022/11/14 09:13:14;;;;;;;1.60;0.83;;;7.40;99.90;;;;;;5049870;28;20546;-66
2022/11/14 09:15:41;;;;;;;1.70;0.97;;;7.40;99.90;;;;;;5051835;28;20197;-66
2022/11/14 09:18:08;;;;;;;2.50;1.17;;;7.40;99.90;;;;;;5052035;28;20177;-66
2022/11/14 09:20:34;;;;;;;3.77;1.23;;;7.40;99.90;;;;;;5051951;28;20459;-66
2022/11/14 09:23:00;;;;;;;2.50;1.30;;;7.50;99.90;;;;;;5051035;28;20912;-66
2022/11/14 09:25:28;;;;;;;3.33;1.90;;;7.50;99.90;;;;;;5049473;28;20652;-66
2022/11/14 09:27:53;;;;;;;2.63;1.40;;;7.50;99.90;;;;;;5050557;28;20775;-66
2022/11/14 09:30:19;;;;;;;4.17;1.67;;;7.50;99.90;;;;;;5050083;28;20424;-66
2022/11/14 09:32:45;;;;;;;4.20;2.47;;;7.50;99.90;;;;;;5046164;28;20733;-66
2022/11/14 09:35:11;;;;;;;3.63;1.63;;;7.50;99.90;;;;;;5039041;28;20179;-66
2022/11/14 09:37:37;;;;;;;4.07;1.47;;;7.50;99.90;;;;;;5042751;28;20189;-66
2022/11/14 09:40:03;;;;;;;5.90;2.33;;;7.50;99.90;;;;;;5038058;28;20424;-66
2022/11/14 09:42:44;;;;;;;3.80;1.60;;;7.50;99.90;;;;;;5043929;28;20428;-66
2022/11/14 09:45:13;;;;;;;2.60;1.53;;;7.60;99.90;;;;;;5049831;28;20404;-65
2022/11/14 09:47:43;;;;;;;1.93;1.23;;;7.60;99.90;;;;;;5042335;28;20444;-66
2022/11/14 09:50:21;;;;;;;2.43;1.10;;;7.70;99.90;;;;;;5033768;28;20417;-66
2022/11/14 09:52:55;;;;;;;3.43;1.33;;;7.80;99.90;;;;;;5047963;28;20428;-65
2022/11/14 09:55:26;;;;;;;2.23;0.90;;;7.80;99.90;;;;;;5040462;28;20423;-65
2022/11/14 09:57:52;;;;;;;2.40;1.13;;;7.90;99.90;;;;;;5046681;28;20420;-66
2022/11/14 10:00:20;;;;;;;3.03;1.27;;;8.00;99.90;;;;;;5049650;28;20456;-66
2022/11/14 10:02:54;;;;;;;2.03;1.07;;;8.10;99.90;;;;;;5050496;28;20185;-67
2022/11/14 10:05:58;;;;;;;2.60;1.20;;;8.20;99.90;;;;;;5038880;28;20420;-66
2022/11/14 10:08:35;;;;;;;2.63;1.00;;;8.40;99.90;;;;;;4990196;28;20422;-66
2022/11/14 10:11:04;;;;;;;2.40;0.93;;;8.50;99.90;;;;;;5006866;28;20422;-66
2022/11/14 10:14:00;;;;;;;3.50;1.43;;;8.50;99.90;;;;;;5011146;28;21318;-66
2022/11/14 10:16:47;;;;;;;1.53;0.93;;;8.50;99.90;;;;;;5046532;28;20473;-67
2022/11/14 10:19:41;;;;;;;1.43;0.73;;;8.50;99.90;;;;;;5050222;28;20424;-67
2022/11/14 10:22:44;;;;;;;1.40;0.70;;;8.50;99.90;;;;;;5047073;28;20463;-67
2022/11/14 10:25:15;;;;;;;1.70;0.80;;;8.50;99.90;;;;;;5048991;28;20416;-67
2022/11/14 10:27:44;;;;;;;1.50;0.90;;;8.40;99.90;;;;;;5050970;28;20419;-67
2022/11/14 10:30:14;;;;;;;5.73;1.17;;;8.40;99.90;;;;;;5044649;28;20428;-67
2022/11/14 10:32:48;;;;;;;3.33;0.70;;;8.40;99.90;;;;;;5043400;28;20428;-67
2022/11/14 10:35:22;;;;;;;1.40;0.73;;;8.50;99.90;;;;;;5037922;28;20433;-67
2022/11/14 10:38:09;;;;;;;1.50;0.60;;;8.60;99.90;;;;;;5031660;28;20460;-67
2022/11/14 10:40:40;;;;;;;1.53;0.80;;;8.70;99.90;;;;;;5037825;28;20510;-67
2022/11/14 10:43:19;;;;;;;1.93;0.90;;;8.80;99.90;;;;;;5049286;28;20913;-66
2022/11/14 10:46:14;;;;;;;1.80;0.80;;;8.80;99.90;;;;;;5044245;28;20859;-67
2022/11/14 10:48:43;;;;;;;1.70;0.90;;;8.80;99.90;;;;;;5031374;28;20511;-67
2022/11/14 10:51:23;;;;;;;2.37;0.93;;;8.80;99.90;;;;;;5050583;28;20551;-67
2022/11/14 10:53:59;;;;;;;1.50;0.80;;;8.90;99.90;;;;;;5050123;28;20419;-67
2022/11/14 10:56:25;;;;;;;1.30;0.60;;;8.90;99.90;;;;;;5045513;28;20945;-67
2022/11/14 10:58:50;;;;;;;2.43;0.90;;;8.90;99.90;;;;;;5045172;28;20420;-67
2022/11/14 11:01:35;;;;;;;3.60;1.60;;;9.00;99.90;;;;;;5045388;28;20211;-67
2022/11/14 11:04:21;;;;;;;2.00;0.80;;;9.00;99.90;;;;;;5044718;28;20222;-67
2022/11/14 11:06:48;;;;;;;1.93;0.93;;;9.10;99.90;;;;;;5050531;28;20424;-67
2022/11/14 11:12:06;;;;;;;2.70;0.70;;;9.10;99.90;;;;;;5048015;28;20466;-67
2022/11/14 11:14:33;;;;;;;4.73;0.93;;;9.20;99.90;;;;;;5037297;28;20443;-67
2022/11/14 11:17:10;;;;;;;1.97;0.83;;;9.20;99.90;;;;;;5050303;28;20423;-67
2022/11/14 11:19:39;;;;;;;2.80;1.07;;;9.20;99.90;;;;;;5050378;28;20419;-67
2022/11/14 11:22:26;;;;;;;1.87;0.93;;;9.20;99.90;;;;;;5049432;28;21035;-67
2022/11/14 11:24:52;;;;;;;1.30;0.70;;;9.10;99.90;;;;;;5050343;28;20412;-67
2022/11/14 11:27:19;;;;;;;2.00;1.10;;;9.10;99.90;;;;;;5049130;28;20962;-68
2022/11/14 11:29:45;;;;;;;1.50;0.87;;;9.10;99.90;;;;;;5043683;28;20185;-68
2022/11/14 11:32:22;;;;;;;2.07;0.70;;;9.10;99.90;;;;;;5048686;28;20422;-67
2022/11/14 11:34:48;;;;;;;1.87;0.93;;;9.10;99.90;;;;;;5048036;28;20815;-67
2022/11/14 11:37:39;;;;;;;2.30;1.00;;;9.00;99.90;;;;;;5042981;28;20456;-67
2022/11/14 11:40:11;;;;;;;3.73;1.53;;;9.00;99.90;;;;;;5034154;28;20235;-67
2022/11/14 11:42:46;;;;;;;1.37;0.63;;;9.10;99.90;;;;;;5048135;28;20869;-67
2022/11/14 11:45:17;;;;;;;1.70;1.00;;;9.10;99.90;;;;;;5036002;28;20427;-67
2022/11/14 11:48:12;;;;;;;2.13;1.17;;;9.00;99.90;;;;;;5049736;28;20452;-67
2022/11/14 11:50:39;;;;;;;3.00;0.90;;;9.00;99.90;;;;;;5038677;28;20454;-67
2022/11/14 11:53:17;;;;;;;1.60;0.80;;;9.10;99.90;;;;;;5042345;28;21247;-67
2022/11/14 11:55:45;;;;;;;2.90;1.40;;;9.10;99.90;;;;;;5053541;28;20447;-67
2022/11/14 11:58:27;;;;;;;2.90;0.97;;;9.10;99.90;;;;;;5039599;28;20416;-67
2022/11/14 12:00:56;;;;;;;2.83;1.17;;;9.20;99.90;;;;;;5039638;28;20944;-67
2022/11/14 12:03:25;;;;;;;1.20;0.67;;;9.20;99.90;;;;;;5052594;28;20449;-67
2022/11/14 12:05:57;;;;;;;1.60;0.90;;;9.30;99.90;;;;;;5053657;28;20416;-67
2022/11/14 12:08:34;;;;;;;2.60;1.23;;;9.30;99.90;;;;;;5042792;28;20413;-66
2022/11/14 12:11:03;;;;;;;2.43;1.00;;;9.40;99.90;;;;;;5052632;28;21173;-67
2022/11/14 12:13:50;;;;;;;4.00;1.57;;;9.50;99.90;;;;;;5051180;28;20457;-67
2022/11/14 12:16:53;;;;;;;2.57;0.93;;;9.60;99.90;;;;;;5043854;28;20481;-67
2022/11/14 12:19:36;;;;;;;2.57;1.20;;;9.70;99.90;;;;;;5039628;28;20423;-67
2022/11/14 12:22:11;;;;;;;2.27;0.90;;;9.80;99.90;;;;;;5043987;28;20479;-66
2022/11/14 12:24:39;;;;;;;1.80;1.00;;;9.80;99.90;;;;;;5051868;28;20454;-67
2022/11/14 12:27:23;;;;;;;3.60;1.40;;;9.80;99.90;;;;;;5044967;28;20413;-67
2022/11/14 12:30:09;;;;;;;2.50;1.13;;;9.90;99.90;;;;;;5036105;28;20430;-67
2022/11/14 12:32:41;;;;;;;2.33;0.97;;;9.90;99.90;;;;;;5049599;28;20413;-66
2022/11/14 12:35:15;;;;;;;1.30;0.70;;;9.90;99.90;;;;;;5041447;28;20405;-68
2022/11/14 12:37:46;;;;;;;3.13;1.60;;;10.00;99.90;;;;;;5051674;28;20762;-67
2022/11/14 12:40:36;;;;;;;3.77;1.33;;;10.00;99.90;;;;;;5039793;28;20421;-66
2022/11/14 12:43:05;;;;;;;4.40;1.17;;;10.10;99.90;;;;;;5040797;28;20416;-67
2022/11/14 12:45:40;;;;;;;2.23;1.23;;;10.30;99.90;;;;;;5043434;28;20910;-67
2022/11/14 12:48:24;;;;;;;4.10;1.20;;;10.50;99.90;;;;;;5036231;28;20423;-67
2022/11/14 12:50:50;;;;;;;1.70;1.00;;;10.60;99.90;;;;;;5052945;28;20416;-66
2022/11/14 12:53:36;;;;;;;3.60;0.93;;;10.70;99.90;;;;;;5051842;28;20431;-67
2022/11/14 12:56:26;;;;;;;3.70;1.10;;;10.90;99.90;;;;;;5039067;28;20459;-66
2022/11/14 12:59:28;;;;;;;2.23;0.80;;;11.00;99.90;;;;;;5051463;28;20759;-67
2022/11/14 13:01:59;;;;;;;2.47;1.20;;;11.20;99.90;;;;;;5043395;28;20859;-67
2022/11/14 13:04:44;;;;;;;2.40;1.23;;;11.10;99.90;;;;;;5036008;28;20408;-67